Olustee, Oklahoma
Current Conditions -  °F | °C
As of 3:58 PM on Monday 22 Dec 2014 (Local Time) from KLTS Reporting Station
Few Clouds Few Clouds  
Wind Chill: 59°   Ceiling: Unl
Heat Index: 59°   Visibility: 10mi
Dew Point: 33°   Wind: 12mph
Humidity: 37%   Direction: 320°NW
Pressure: 29.64"   Gusts: NA
Location:  34.55°N, 99.42°W
Report Text: KLTS 222158Z AUTO 32010KT 10SM FEW120 15/00 A2964 RMK AO2 SLP037 T01510003 $
Loading
Personal Weather Stations






























Interactive Weather Map New forecast layout! Learn more

10-Day Weather Forecast

Advertisements
Track Severe Weather on mobile